Airfield :
LOGIN :

Register | Disclaimer

   EN    FR    IT 

 










Legend :    VFR   Marginal VFR   IFR   Intensive IFR   Very Intensive IFR
Visi :
Ceiling :
>= 8 km
>= 3000ft
5 to 8 km
1000 to 3000 ft
1500m to 5 km
500 to 1000 ft
800 to 1500m
200 to 500 ft
< 800m
< 200 ft
Symbols :   Thunderstorms  Fog  Heavy snow  Heavy precipitations  Wind > 20 kt
SIGMETs :     Misc.  Thunderstorms  Icing  Turbulence  Mountain Waves  Volcanic Ashes






- Airport Elevation : 659 ft
- IATA code : LYN


LFLY - Lyon Bron

CURRENT METAR :
  • 280100Z AUTO 34009KT 9999 FEW042 15/11 Q1021 NOSIG

EXPIRED METARs :
  • 280030Z AUTO 34010KT 9999 BKN041 16/11 Q1021 NOSIG
  • 280000Z AUTO 33010KT CAVOK 16/11 Q1021 NOSIG
  • 272330Z AUTO 34010KT 9999 FEW039 17/11 Q1022 NOSIG
  • 272300Z AUTO 34011KT 9999 BKN040 17/11 Q1022 NOSIG
  • 272230Z AUTO 34012KT 9999 OVC040 18/11 Q1022 NOSIG

TAF TAF LFLY
Valid from the 28 at 00:00 until the 29 at 00:00 UTC


272300Z 2800/2824 36012KT CAVOK
TEMPO 2800/2806 SCT045
TEMPO 2809/2820 36015G27KT
ATIS : +33 4 72 15 87 96



MET'MAP, your aeronautical weather chart ! - Copyright ORBIFLY December 2007 - Disclaimer

ORBIFLY MET'MAP TEAM :

Programming & Development : Alexandra Zaïnal
Original concept : Baudouin d'Aumeries
Technical & hardware support : Manuel Goepfert
Assistance : Marc-Olivier Méhu

Contact : metmap@orbifly.com




SOURCES & CREDITS :

   NOAA